Pagrindinis puslapis
METAR-TAF:

METAR-TAF

Oro uostai :

Amanas, Jordanija

platuma: 31-59N, ilguma: 035-59E, Aukštis: 767 m

Dabartinis oras

Ataskaita buvo paskelbta 48 minutes, ne 04:00 UTC
Vėjas 4 kt iš Vakarų/Pietvakarių
Temperatūra 19°C
Drėgmė 24%
Slėgis 1014 hPa
Matomumas 10 km arba daugiau
nėra debesų žemiau 1500 m ir nėra kamuolinių lietaus debesų

METAR: OJAM 140400Z 25004KT CAVOK 19/M02 Q1014 NOSIG

Laikas: 07:48 (04:48 UTC)

Prognozė

Ataskaita buvo paskelbta 6 valandos ir 28 minutes, ne 22:20 UTC
Prognozė galioja nuo 14 metu 00 UTC su 15 metu 06 UTC
Vėjas 5 kt iš Vakarų
Matomumas: 6000 m
Laikinai
nuo 14 metu 10 UTC su 14 metu 18 UTC
Vėjas 16 kt iš Vakarų/Šiaurės Vakarų
Tikimybė 30% :
Laikinai
nuo 14 metu 12 UTC su 14 metu 15 UTC
Matomumas: 3000 m
Dulkes pustymas

TAF: OJAM 132220Z 1400/1506 28005KT 6000 NSC TEMPO 1410/1418 29016KT PROB30 TEMPO 1412/1415 3000 BLDU

Orai ataskaitas ir orų prognozės (METAR, TAF).

turimą stotys yra geltonos ir raudonos taškus žemėlapyje.

Perkelti pele per norėdami pamatyti stoties vardą.

Tada spustelėkite, norėdami matyti oro stebėjimo ir prognozės.

Norėdami pakeisti žemėlapį: spustelėkite ant žalios mygtukų su juodo kryžiaus žemyn,; žalią mygtuką su brūkšneliu, jei norite nutolinti; arba žalių rodyklių gretimoms žemėlapius.


METAR-TAF: